CheckWX is a tool to help pilots better visualize weather data.  It is not intended as a substitute for an official pre-flight weather briefing.

20:51:44 UTC

KFXE TAF
Fort Lauderdale Executive Airport
Fort Lauderdale, Florida, USA
KFXE 161956Z 1620/1718 21005KT P6SM SHRA SCT020 BKN045 FM170200 VRB03KT P6SM VCSH SCT020 BKN070 BKN200 FM171000 13008KT P6SM VCSH SCT020 BKN040 BKN080 PROB30 1710/1716 TSRA BKN035CB

Jun-16@
20:00 UTC

Jun-16 @ 20:00 UTC

Jun-17@
02:00 UTC

Jun-17 @ 02:00 UTC

KFXE 161956Z 1620/1718 21005KT P6SM SHRA SCT020 BKN045
Wind
  • 210° at 5 KTS
Conditions
Rain
Cloud Levels
  • Scattered at 2,000' AGL
  • Broken at 4,500' AGL

Jun-17@
02:00 UTC

Jun-17 @ 02:00 UTC

Jun-17@
10:00 UTC

Jun-17 @ 10:00 UTC

FM170200 VRB03KT P6SM VCSH SCT020 BKN070 BKN200

From

From Standard forecast or significant change

Wind
  • Variable at 3 KTS
Cloud Levels
  • Scattered at 2,000' AGL
  • Broken at 7,000' AGL
  • Broken at 20,000' AGL

Jun-17@
10:00 UTC

Jun-17 @ 10:00 UTC

Jun-17@
16:00 UTC

Jun-17 @ 16:00 UTC

PROB30 1710/1716 TSRA BKN035CB

Probable - 30% Likelihood

Probable - 30% Likelihood during this time.

Conditions
Thunderstorm, Rain
Cloud Levels
  • Broken at 3,500' AGL

Jun-17@
10:00 UTC

Jun-17 @ 10:00 UTC

Jun-17@
18:00 UTC

Jun-17 @ 18:00 UTC

FM171000 13008KT P6SM VCSH SCT020 BKN040 BKN080

From

From Standard forecast or significant change

Wind
  • 130° at 8 KTS
Cloud Levels
  • Scattered at 2,000' AGL
  • Broken at 4,000' AGL
  • Broken at 8,000' AGL